Time;durP1;ratioP1;P1;durP2;ratioP2;P2;SDS_P1;SDS_P2;PMS_P1;PMS_P2;Temp;Humidity;BMP_temperature;BMP_pressure;BME280_temperature;BME280_humidity;BME280_pressure;Samples;Min_cycle;Max_cycle;Signal;HPM_P1;HPM_P2
2022/03/08 00:00:43;;;;;;;23.97;9.97;;;;;;;-145.69;59.96;73492.28;5095218;28;20206;-75
2022/03/08 00:03:09;;;;;;;20.43;9.47;;;;;;;-145.69;59.48;73488.31;5094922;28;20202;-75
2022/03/08 00:05:36;;;;;;;18.50;9.30;;;;;;;-145.69;59.69;73490.31;5094947;28;20618;-75
2022/03/08 00:08:04;;;;;;;22.90;9.30;;;;;;;-145.69;59.25;73498.28;5094977;28;20240;-75
2022/03/08 00:10:31;;;;;;;19.60;9.70;;;;;;;-145.69;59.02;73508.22;5093888;28;20225;-75
2022/03/08 00:12:57;;;;;;;19.83;9.63;;;;;;;-145.69;57.64;73488.31;5094523;28;20202;-75
2022/03/08 00:15:25;;;;;;;23.00;9.60;;;;;;;-145.69;58.80;73500.25;5094928;28;20221;-75
2022/03/08 00:17:53;;;;;;;25.07;10.43;;;;;;;-145.69;58.96;73508.22;5110849;28;20552;-75
2022/03/08 00:20:20;;;;;;;23.70;10.67;;;;;;;-145.69;58.76;73512.22;5114823;27;20228;-75
2022/03/08 00:22:51;;;;;;;26.50;10.20;;;;;;;-145.69;59.13;73524.16;5114650;28;20217;-75
2022/03/08 00:25:19;;;;;;;25.20;10.33;;;;;;;-145.69;58.53;73508.22;5114708;28;20243;-75
2022/03/08 00:27:47;;;;;;;23.87;10.53;;;;;;;-145.69;59.01;73516.19;5114856;28;20201;-76
2022/03/08 00:30:14;;;;;;;20.60;10.30;;;;;;;-145.69;59.81;73524.16;5114740;28;20224;-76
2022/03/08 00:32:41;;;;;;;22.70;10.90;;;;;;;-145.69;59.84;73508.22;5114891;28;20193;-75
2022/03/08 00:35:10;;;;;;;24.60;10.53;;;;;;;-145.69;59.11;73524.16;5114613;28;20208;-75
2022/03/08 00:37:38;;;;;;;24.33;10.50;;;;;;;-145.69;59.01;73524.16;5114556;28;20668;-75
2022/03/08 00:40:07;;;;;;;22.97;10.47;;;;;;;-145.69;59.05;73516.19;5114548;28;20205;-75
2022/03/08 00:42:35;;;;;;;22.33;10.97;;;;;;;-145.69;59.16;73510.22;5114701;28;20213;-75
2022/03/08 00:45:02;;;;;;;24.93;11.50;;;;;;;-145.69;60.15;73528.13;5114600;28;20292;-76
2022/03/08 00:47:29;;;;;;;22.57;10.00;;;;;;;-145.69;60.86;73532.13;5111604;28;20198;-76
2022/03/08 00:49:55;;;;;;;25.50;11.23;;;;;;;-145.69;60.81;73540.06;5114307;28;20257;-76
2022/03/08 00:52:22;;;;;;;27.23;12.18;;;;;;;-145.69;60.48;73552.03;5113988;28;20975;-76
2022/03/08 00:54:48;;;;;;;23.77;10.63;;;;;;;-145.69;60.66;73538.09;5114424;28;20252;-76
2022/03/08 00:57:15;;;;;;;25.27;10.93;;;;;;;-145.69;59.94;73546.06;5114331;28;20206;-76
2022/03/08 00:59:43;;;;;;;24.00;10.57;;;;;;;-145.69;61.20;73530.13;5114348;28;20209;-76
2022/03/08 01:02:11;;;;;;;25.50;10.53;;;;;;;-145.69;60.75;73536.09;5114277;28;20228;-76
2022/03/08 01:04:38;;;;;;;22.30;10.63;;;;;;;-145.69;60.17;73516.19;5114119;28;20281;-76
2022/03/08 01:07:07;;;;;;;22.17;10.20;;;;;;;-145.69;58.46;73498.28;5113880;28;20213;-75
2022/03/08 01:09:34;;;;;;;20.60;10.53;;;;;;;-145.69;58.12;73500.25;5113898;28;20695;-75
2022/03/08 01:12:01;;;;;;;22.13;10.00;;;;;;;-145.69;58.97;73504.25;5113920;28;20647;-75
2022/03/08 01:14:28;;;;;;;24.47;10.43;;;;;;;-145.69;59.52;73508.22;5113982;28;20285;-76
2022/03/08 01:16:55;;;;;;;24.23;9.93;;;;;;;-145.69;59.18;73494.28;5108761;28;20213;-75
2022/03/08 01:19:22;;;;;;;21.70;9.63;;;;;;;-145.69;58.83;73484.34;5093209;28;20283;-75
2022/03/08 01:21:51;;;;;;;20.30;8.97;;;;;;;-145.69;58.11;73484.34;5093269;28;20206;-76
2022/03/08 01:24:18;;;;;;;24.40;9.27;;;;;;;-145.69;57.85;73480.34;5093503;28;20202;-76
2022/03/08 01:26:44;;;;;;;16.57;8.40;;;;;;;-145.69;57.75;73470.41;5080762;28;20225;-76
2022/03/08 01:29:11;;;;;;;17.60;8.23;;;;;;;-145.69;58.81;73468.41;5072981;28;20680;-75
2022/03/08 01:31:38;;;;;;;18.93;9.00;;;;;;;-145.69;57.58;73448.50;5073226;28;20657;-76
2022/03/08 01:34:07;;;;;;;21.10;9.57;;;;;;;-145.69;57.88;73462.44;5073059;28;20203;-76
2022/03/08 01:36:33;;;;;;;18.97;8.97;;;;;;;-145.69;57.35;73458.44;5072980;28;20214;-75
2022/03/08 01:39:00;;;;;;;22.30;10.03;;;;;;;-145.69;57.99;73452.47;5072771;28;20203;-76
2022/03/08 01:41:26;;;;;;;21.57;9.10;;;;;;;-145.69;57.73;73444.50;5072954;28;20206;-75
2022/03/08 01:43:53;;;;;;;19.40;8.87;;;;;;;-145.69;57.03;73448.50;5072921;28;20194;-75
2022/03/08 01:46:20;;;;;;;18.87;8.77;;;;;;;-145.69;56.34;73434.56;5084297;28;20193;-75
2022/03/08 01:48:47;;;;;;;15.73;8.10;;;;;;;-145.69;56.79;73436.56;5113386;28;20193;-75
2022/03/08 01:51:16;;;;;;;16.53;7.90;;;;;;;-145.69;56.17;73432.56;5113276;28;20583;-76
2022/03/08 01:53:44;;;;;;;18.00;7.83;;;;;;;-145.69;56.22;73424.59;5113713;28;20197;-76
2022/03/08 01:56:11;;;;;;;21.50;8.53;;;;;;;-145.69;55.90;73416.66;5113057;28;20697;-75
2022/03/08 01:58:39;;;;;;;17.37;7.23;;;;;;;-145.69;56.22;73428.59;5113386;28;20198;-75
2022/03/08 02:01:08;;;;;;;18.17;7.63;;;;;;;-145.69;56.80;73428.59;5113306;28;20197;-75
2022/03/08 02:03:35;;;;;;;14.30;7.27;;;;;;;-145.69;56.49;73430.56;5113511;28;20216;-75
2022/03/08 02:06:02;;;;;;;14.47;7.27;;;;;;;-145.69;55.79;73416.66;5113425;28;20660;-75
2022/03/08 02:08:30;;;;;;;16.60;7.43;;;;;;;-145.69;56.34;73414.66;5113128;28;20534;-75
2022/03/08 02:10:56;;;;;;;17.65;8.02;;;;;;;-145.69;55.97;73412.66;5113150;28;20546;-75
2022/03/08 02:13:28;;;;;;;14.07;7.27;;;;;;;-145.69;55.96;73402.72;5113265;28;20201;-75
2022/03/08 02:15:54;;;;;;;15.97;7.50;;;;;;;-145.69;55.92;73412.66;5110800;28;20208;-76
2022/03/08 02:18:22;;;;;;;18.10;7.97;;;;;;;-145.69;55.44;73428.59;5093258;28;20205;-75
2022/03/08 02:20:48;;;;;;;14.67;7.57;;;;;;;-145.69;55.35;73412.66;5092551;28;20708;-74
2022/03/08 02:23:16;;;;;;;16.63;7.47;;;;;;;-145.69;54.86;73404.69;5092506;28;20656;-74
2022/03/08 02:25:45;;;;;;;12.33;5.90;;;;;;;-145.69;54.57;73400.72;5094200;28;20247;-76
2022/03/08 02:28:12;;;;;;;14.67;7.27;;;;;;;-145.69;54.83;73400.72;5092596;28;20655;-75
2022/03/08 02:30:38;;;;;;;15.80;7.10;;;;;;;-145.69;54.24;73406.69;5092590;28;20231;-76
2022/03/08 02:33:05;;;;;;;11.47;6.50;;;;;;;-145.69;55.03;73408.69;5094298;28;20601;-75
2022/03/08 02:35:32;;;;;;;12.40;6.80;;;;;;;-145.69;54.38;73398.72;5097112;28;20333;-76
2022/03/08 02:38:01;;;;;;;13.17;6.53;;;;;;;-145.69;53.74;73420.63;5105324;28;20242;-75
2022/03/08 02:40:33;;;;;;;13.80;6.47;;;;;;;-145.69;54.13;73408.69;5117067;28;20197;-76
2022/03/08 02:43:00;;;;;;;14.63;6.50;;;;;;;-145.69;54.36;73430.56;5116690;28;20259;-76
2022/03/08 02:45:27;;;;;;;14.27;6.57;;;;;;;-145.69;54.56;73428.59;5116754;28;20230;-76
2022/03/08 02:47:54;;;;;;;11.80;5.90;;;;;;;-145.69;54.92;73424.59;5116734;28;20571;-75
2022/03/08 02:50:21;;;;;;;16.07;6.80;;;;;;;-145.69;54.90;73422.63;5116105;28;20267;-75
2022/03/08 02:52:51;;;;;;;13.10;6.57;;;;;;;-145.69;54.25;73408.69;5114342;28;20232;-75
2022/03/08 02:55:19;;;;;;;14.00;6.67;;;;;;;-145.69;54.70;73410.66;5116708;28;20262;-74
2022/03/08 02:57:47;;;;;;;14.73;6.70;;;;;;;-145.69;54.18;73406.69;5116211;28;20201;-75
2022/03/08 03:00:16;;;;;;;16.87;7.27;;;;;;;-145.69;54.33;73404.69;5116507;28;20556;-75
2022/03/08 03:02:43;;;;;;;14.37;6.60;;;;;;;-145.69;54.26;73400.72;5116735;28;20201;-74
2022/03/08 03:05:11;;;;;;;14.83;6.87;;;;;;;-145.69;53.42;73388.78;5116433;28;20662;-75
2022/03/08 03:07:38;;;;;;;15.57;6.67;;;;;;;-145.69;54.74;73416.66;5112323;27;20288;-75
2022/03/08 03:10:05;;;;;;;13.53;6.37;;;;;;;-145.69;54.11;73414.66;5096033;28;20222;-75
2022/03/08 03:12:33;;;;;;;15.93;7.57;;;;;;;-145.69;54.31;73412.66;5095714;28;20210;-75
2022/03/08 03:15:01;;;;;;;13.77;6.87;;;;;;;-145.69;53.63;73394.75;5095757;28;20194;-75
2022/03/08 03:17:27;;;;;;;14.90;6.53;;;;;;;-145.69;54.51;73412.66;5095984;28;20232;-75
2022/03/08 03:19:54;;;;;;;15.00;6.70;;;;;;;-145.69;53.98;73412.66;5095814;28;20226;-75
2022/03/08 03:22:20;;;;;;;14.73;7.03;;;;;;;-145.69;53.39;73392.75;5095615;28;20652;-75
2022/03/08 03:24:47;;;;;;;15.33;6.80;;;;;;;-145.69;54.48;73398.72;5080679;28;20203;-76
2022/03/08 03:27:13;;;;;;;13.00;6.60;;;;;;;-145.69;53.73;73400.72;5075762;28;20207;-77
2022/03/08 03:29:40;;;;;;;15.60;6.67;;;;;;;-145.69;53.92;73396.72;5075494;28;20202;-76
2022/03/08 03:32:08;;;;;;;12.33;6.57;;;;;;;-145.69;54.67;73404.69;5075452;28;20653;-76
2022/03/08 03:34:36;;;;;;;10.87;6.00;;;;;;;-145.69;55.11;73414.66;5075137;28;20669;-76
2022/03/08 03:37:03;;;;;;;14.23;7.17;;;;;;;-145.69;54.16;73400.72;5075205;28;20202;-77
2022/03/08 03:39:30;;;;;;;13.53;6.20;;;;;;;-145.69;54.34;73376.81;5113939;28;20198;-76
2022/03/08 03:41:56;;;;;;;11.70;5.87;;;;;;;-145.69;53.65;73386.78;5116110;28;20216;-77
2022/03/08 03:44:23;;;;;;;14.07;6.60;;;;;;;-145.69;53.49;73388.78;5114723;28;20250;-76
2022/03/08 03:46:50;;;;;;;10.97;5.43;;;;;;;-145.69;52.85;73376.81;5115869;28;20556;-77
2022/03/08 03:49:18;;;;;;;12.83;5.70;;;;;;;-145.69;53.35;73392.75;5115688;28;20251;-76
2022/03/08 03:51:46;;;;;;;13.13;6.23;;;;;;;-145.69;53.20;73384.78;5115008;28;20229;-77
2022/03/08 03:54:13;;;;;;;13.07;5.53;;;;;;;-145.69;53.75;73384.78;5115858;27;20198;-77
2022/03/08 03:56:39;;;;;;;13.73;5.83;;;;;;;-145.69;53.70;73372.84;5115546;28;20246;-77
2022/03/08 03:59:06;;;;;;;13.87;6.27;;;;;;;-145.69;53.65;73380.81;5115659;28;20258;-75
2022/03/08 04:01:32;;;;;;;13.07;5.87;;;;;;;-145.69;53.31;73376.81;5115418;28;20583;-76
2022/03/08 04:03:59;;;;;;;13.37;6.67;;;;;;;-145.69;52.79;73368.88;5115390;28;20202;-76
2022/03/08 04:06:27;;;;;;;10.70;5.50;;;;;;;-145.69;53.04;73372.84;5115392;28;20225;-76
2022/03/08 04:08:53;;;;;;;12.07;5.93;;;;;;;-145.69;53.00;73388.78;5101037;28;20213;-76
2022/03/08 04:11:20;;;;;;;13.37;5.77;;;;;;;-145.69;53.38;73384.78;5094772;28;20226;-76
2022/03/08 04:13:46;;;;;;;14.15;7.47;;;;;;;-145.69;53.88;73388.78;5093671;28;20440;-75
2022/03/08 04:16:13;;;;;;;14.63;6.10;;;;;;;-145.69;53.55;73384.78;5099560;28;20276;-76
2022/03/08 04:18:39;;;;;;;11.63;5.50;;;;;;;-145.69;53.67;73412.66;5114467;28;20251;-76
2022/03/08 04:21:06;;;;;;;13.40;5.87;;;;;;;-145.69;54.22;73408.69;5114769;28;20634;-76
2022/03/08 04:23:34;;;;;;;14.27;5.60;;;;;;;-145.69;53.18;73392.75;5114961;27;20209;-76
2022/03/08 04:26:03;;;;;;;8.80;5.00;;;;;;;-145.69;52.83;73390.75;5115007;28;20209;-76
2022/03/08 04:28:29;;;;;;;11.53;5.47;;;;;;;-145.69;53.83;73384.78;5114967;28;20284;-76
2022/03/08 04:30:56;;;;;;;12.07;5.93;;;;;;;-145.69;53.83;73368.88;5114706;28;20229;-76
2022/03/08 04:33:22;;;;;;;10.37;5.67;;;;;;;-145.69;52.78;73376.81;5114314;28;20201;-76
2022/03/08 04:35:49;;;;;;;13.33;6.30;;;;;;;-145.69;54.45;73382.81;5114723;28;20632;-75
2022/03/08 04:38:15;;;;;;;10.23;5.63;;;;;;;-145.69;53.23;73366.88;5106282;28;20195;-75
2022/03/08 04:40:43;;;;;;;12.83;5.53;;;;;;;-145.69;54.51;73390.75;5094347;28;20202;-75
2022/03/08 04:43:10;;;;;;;8.87;4.53;;;;;;;-145.69;53.28;73376.81;5094152;28;20198;-75
2022/03/08 04:45:37;;;;;;;12.53;5.70;;;;;;;-145.69;53.00;73388.78;5094176;28;20229;-75
2022/03/08 04:48:06;;;;;;;11.83;5.90;;;;;;;-145.69;53.55;73388.78;5093608;28;20206;-75
2022/03/08 04:50:33;;;;;;;9.70;5.37;;;;;;;-145.69;53.90;73376.81;5094169;28;20245;-74
2022/03/08 04:53:00;;;;;;;17.07;5.77;;;;;;;-145.69;53.85;73390.75;5094082;28;20207;-74
2022/03/08 04:55:26;;;;;;;14.60;5.67;;;;;;;-145.69;53.38;73388.78;5093705;28;20205;-74
2022/03/08 04:57:54;;;;;;;11.00;5.47;;;;;;;-145.69;52.93;73396.72;5093810;28;20199;-74
2022/03/08 05:00:20;;;;;;;16.10;6.57;;;;;;;-145.69;54.03;73408.69;5093713;28;20251;-75
2022/03/08 05:02:47;;;;;;;14.63;5.63;;;;;;;-145.69;54.14;73408.69;5093911;28;20680;-75
2022/03/08 05:05:14;;;;;;;11.83;5.77;;;;;;;-145.69;54.52;73400.72;5093917;28;20205;-75
2022/03/08 05:07:44;;;;;;;14.97;6.20;;;;;;;-145.69;54.53;73416.66;5095696;28;20197;-75
2022/03/08 05:10:13;;;;;;;11.07;5.80;;;;;;;-145.69;55.53;73440.53;5113625;28;20241;-74
2022/03/08 05:12:40;;;;;;;11.03;5.47;;;;;;;-145.69;54.31;73460.44;5113937;28;20193;-74
2022/03/08 05:15:10;;;;;;;12.23;5.83;;;;;;;-145.69;55.15;73428.59;5113879;28;20606;-75
2022/03/08 05:17:38;;;;;;;12.40;5.80;;;;;;;-145.69;55.27;73418.63;5080225;28;20209;-74
2022/03/08 05:20:06;;;;;;;16.80;6.20;;;;;;;-145.69;55.26;73442.53;5073177;28;20234;-75
2022/03/08 05:22:33;;;;;;;14.33;6.00;;;;;;;-145.69;54.48;73432.56;5073512;28;20210;-74
2022/03/08 05:25:00;;;;;;;10.83;5.73;;;;;;;-145.69;55.49;73466.41;5073123;28;20199;-75
2022/03/08 05:27:26;;;;;;;14.17;6.03;;;;;;;-145.69;56.31;73444.50;5072643;28;20205;-75
2022/03/08 05:29:53;;;;;;;13.73;6.07;;;;;;;-145.69;55.03;73448.50;5073318;28;20206;-75
2022/03/08 05:32:21;;;;;;;15.30;7.47;;;;;;;-145.69;56.17;73480.34;5072284;28;20462;-75
2022/03/08 05:34:47;;;;;;;19.07;7.00;;;;;;;-145.69;56.70;73456.47;5073163;28;20206;-74
2022/03/08 05:37:14;;;;;;;12.20;5.73;;;;;;;-145.69;56.79;73432.56;5072850;28;20232;-75
2022/03/08 05:39:41;;;;;;;10.83;5.53;;;;;;;-145.69;57.28;73446.50;5110415;28;20274;-75
2022/03/08 05:42:08;;;;;;;14.10;5.90;;;;;;;-145.69;55.82;73402.72;5113496;28;20209;-75
2022/03/08 05:44:34;;;;;;;11.93;5.03;;;;;;;-145.69;57.20;73432.56;5113685;28;20213;-75
2022/03/08 05:47:01;;;;;;;12.20;6.27;;;;;;;-145.69;56.05;73414.66;5104341;28;20194;-75
2022/03/08 05:49:29;;;;;;;13.73;5.80;;;;;;;-145.69;57.13;73418.63;5093164;28;20284;-76
2022/03/08 05:51:57;;;;;;;11.70;5.87;;;;;;;-145.69;57.57;73420.63;5092871;28;20230;-77
2022/03/08 05:54:24;;;;;;;12.10;5.63;;;;;;;-145.69;58.44;73412.66;5092485;28;20205;-76
2022/03/08 05:56:50;;;;;;;14.73;5.60;;;;;;;-145.69;59.64;73428.59;5092951;28;20202;-77
2022/03/08 05:59:17;;;;;;;13.30;5.77;;;;;;;-145.69;59.55;73414.66;5093170;28;20202;-76
2022/03/08 06:01:46;;;;;;;13.00;5.43;;;;;;;-145.69;60.80;73422.63;5092711;28;20194;-76
2022/03/08 06:04:12;;;;;;;12.87;5.70;;;;;;;-145.69;61.13;73408.69;5093144;28;20213;-77
2022/03/08 06:06:40;;;;;;;11.53;5.43;;;;;;;-145.69;60.56;73404.69;5092986;28;20198;-76
2022/03/08 06:09:09;;;;;;;14.30;5.33;;;;;;;-145.69;62.68;73392.75;5096126;28;20668;-77
2022/03/08 06:11:36;;;;;;;10.73;5.37;;;;;;;-145.69;62.53;73380.81;5096628;28;20233;-77
2022/03/08 06:14:02;;;;;;;14.23;6.03;;;;;;;-145.69;63.18;73380.81;5097175;28;20202;-77
2022/03/08 06:16:29;;;;;;;9.53;5.17;;;;;;;-145.69;64.36;73362.88;5099831;28;20664;-76
2022/03/08 06:18:56;;;;;;;15.37;5.20;;;;;;;-145.69;65.91;73364.88;5116949;28;20193;-76
2022/03/08 06:21:23;;;;;;;17.87;7.30;;;;;;;-145.69;65.62;73378.81;5116975;28;20671;-77
2022/03/08 06:23:51;;;;;;;10.60;5.60;;;;;;;-145.69;66.72;73356.91;5117051;28;20216;-77
2022/03/08 06:26:18;;;;;;;11.47;6.30;;;;;;;-145.69;67.50;73356.91;5117375;28;20205;-77
2022/03/08 06:28:44;;;;;;;13.60;6.40;;;;;;;-145.69;67.99;73350.94;5117069;28;20197;-77
2022/03/08 06:31:11;;;;;;;14.40;5.47;;;;;;;-145.69;68.13;73360.91;5116999;28;20618;-76
2022/03/08 06:33:37;;;;;;;17.10;6.07;;;;;;;-145.69;68.92;73358.91;5117219;28;20682;-77
2022/03/08 06:36:04;;;;;;;20.13;7.10;;;;;;;-145.69;68.77;73370.84;5117010;28;20675;-77
2022/03/08 06:38:31;;;;;;;9.67;5.30;;;;;;;-145.69;70.21;73370.84;5116692;27;20189;-77
2022/03/08 06:40:59;;;;;;;12.67;6.00;;;;;;;-145.69;70.49;73372.84;5116946;28;20207;-77
2022/03/08 06:43:25;;;;;;;14.07;6.53;;;;;;;-145.69;71.18;73358.91;5117165;28;20202;-77
2022/03/08 06:45:52;;;;;;;12.90;6.03;;;;;;;-145.69;71.40;73360.91;5115560;28;20198;-76
2022/03/08 06:48:18;;;;;;;15.53;6.47;;;;;;;-145.69;71.35;73354.94;5095906;28;20198;-76
2022/03/08 06:50:45;;;;;;;13.23;6.83;;;;;;;-145.69;71.94;73356.91;5096136;28;20668;-76
2022/03/08 06:53:14;;;;;;;10.63;5.93;;;;;;;-145.69;71.99;73352.94;5096442;28;20293;-76
2022/03/08 06:55:40;;;;;;;17.50;7.00;;;;;;;-145.69;71.97;73344.97;5096271;28;20239;-77
2022/03/08 06:58:12;;;;;;;12.17;6.17;;;;;;;-145.69;70.90;73344.97;5096068;28;20213;-77
2022/03/08 07:00:39;;;;;;;12.27;6.57;;;;;;;-145.69;72.28;73346.97;5096365;28;20198;-77
2022/03/08 07:03:05;;;;;;;17.23;7.10;;;;;;;-145.69;71.80;73341.00;5096290;28;20202;-77
2022/03/08 07:05:32;;;;;;;13.37;6.40;;;;;;;-145.69;71.50;73335.03;5095773;28;20208;-77
2022/03/08 07:07:59;;;;;;;16.23;7.00;;;;;;;-145.69;70.84;73337.00;5096002;28;20210;-77
2022/03/08 07:10:26;;;;;;;13.77;6.40;;;;;;;-145.69;70.74;73337.00;5095985;28;20193;-76
2022/03/08 07:12:52;;;;;;;14.57;6.50;;;;;;;-145.69;70.90;73327.06;5095830;28;20719;-77
2022/03/08 07:15:21;;;;;;;14.77;6.67;;;;;;;-145.69;70.92;73331.03;5083306;28;20199;-76
2022/03/08 07:17:51;;;;;;;12.33;6.87;;;;;;;-145.69;70.07;73335.03;5109631;28;20551;-77
2022/03/08 07:20:20;;;;;;;15.20;6.40;;;;;;;-145.69;70.07;73329.03;5115825;28;20251;-76
2022/03/08 07:22:49;;;;;;;11.13;5.93;;;;;;;-145.69;69.88;73329.03;5114226;28;20212;-77
2022/03/08 07:25:20;;;;;;;11.57;6.43;;;;;;;-145.69;69.29;73325.06;5116025;28;20644;-76
2022/03/08 07:27:47;;;;;;;12.17;5.93;;;;;;;-145.69;68.79;73309.13;5116136;28;20560;-76
2022/03/08 07:30:16;;;;;;;11.13;5.90;;;;;;;-145.69;69.32;73317.09;5116041;28;20205;-76
2022/03/08 07:32:44;;;;;;;10.93;5.70;;;;;;;-145.69;67.22;73295.19;5115007;28;20229;-76
2022/03/08 07:35:14;;;;;;;11.83;6.13;;;;;;;-145.69;66.63;73293.22;5116071;28;20201;-76
2022/03/08 07:37:43;;;;;;;14.20;6.13;;;;;;;-145.69;66.11;73281.25;5116046;28;20560;-76
2022/03/08 07:40:11;;;;;;;11.90;5.90;;;;;;;-145.69;66.21;73275.28;5115813;28;20197;-76
2022/03/08 07:42:37;;;;;;;12.63;6.50;;;;;;;-145.69;66.27;73271.31;5115881;28;20663;-76
2022/03/08 07:45:07;;;;;;;13.87;5.90;;;;;;;-145.69;65.95;73267.34;5116230;28;20197;-76
2022/03/08 07:47:34;;;;;;;10.20;5.60;;;;;;;-145.69;64.43;73265.34;5098499;28;20229;-76
2022/03/08 07:50:03;;;;;;;11.00;5.67;;;;;;;-145.69;63.23;73249.41;5095513;28;20288;-76
2022/03/08 07:52:30;;;;;;;13.23;5.77;;;;;;;-145.69;64.04;73225.53;5095287;28;20270;-77
2022/03/08 07:54:56;;;;;;;12.80;6.20;;;;;;;-145.69;61.79;73233.50;5095200;28;20197;-76
2022/03/08 07:57:23;;;;;;;13.30;5.47;;;;;;;-145.69;62.29;73231.50;5095241;28;20198;-77
2022/03/08 07:59:49;;;;;;;15.03;6.47;;;;;;;-145.69;61.79;73217.56;5095036;28;20653;-76
2022/03/08 08:02:16;;;;;;;11.67;5.87;;;;;;;-145.69;61.89;73217.56;5095249;28;20198;-76
2022/03/08 08:04:42;;;;;;;11.30;5.30;;;;;;;-145.69;61.32;73221.53;5095074;28;20203;-77
2022/03/08 08:07:12;;;;;;;13.00;5.90;;;;;;;-145.69;61.11;73207.59;5094884;28;20595;-76
2022/03/08 08:09:39;;;;;;;10.83;5.87;;;;;;;-145.69;59.16;73193.66;5095334;28;20234;-77
2022/03/08 08:12:08;;;;;;;10.77;5.67;;;;;;;-145.69;57.41;73173.75;5094979;28;20225;-76
2022/03/08 08:14:34;;;;;;;10.43;5.20;;;;;;;-145.69;58.66;73163.81;5094860;28;20225;-77
2022/03/08 08:17:02;;;;;;;12.07;5.43;;;;;;;-145.69;56.70;73157.84;5107032;28;20213;-76
2022/03/08 08:19:28;;;;;;;10.20;5.53;;;;;;;-145.69;55.39;73133.94;5115051;28;20229;-75
2022/03/08 08:21:55;;;;;;;11.03;5.50;;;;;;;-145.69;54.41;73135.94;5114982;28;20201;-76
2022/03/08 08:24:26;;;;;;;16.93;4.93;;;;;;;-145.69;53.51;73114.03;5114991;28;20206;-77
2022/03/08 08:26:53;;;;;;;9.43;4.60;;;;;;;-145.69;52.16;73090.16;5115395;28;20193;-77
2022/03/08 08:29:19;;;;;;;9.63;4.30;;;;;;;-145.69;50.63;73084.19;5114625;27;20189;-77
2022/03/08 08:31:46;;;;;;;8.87;4.77;;;;;;;-145.69;49.83;73060.28;5114188;28;20228;-76
2022/03/08 08:34:12;;;;;;;9.30;4.63;;;;;;;-145.69;48.90;73054.31;5114680;28;20201;-77
2022/03/08 08:36:39;;;;;;;8.10;4.37;;;;;;;-145.69;49.01;73060.28;5114819;28;20201;-78
2022/03/08 08:39:06;;;;;;;10.83;4.83;;;;;;;-145.69;49.04;73060.28;5099568;28;20677;-77
2022/03/08 08:41:34;;;;;;;9.67;5.03;;;;;;;-145.69;48.41;73020.47;5095220;28;20201;-78
2022/03/08 08:44:00;;;;;;;9.17;4.47;;;;;;;-145.69;48.03;73012.53;5094434;28;20194;-77
2022/03/08 08:46:27;;;;;;;7.60;3.87;;;;;;;-145.69;46.70;73002.56;5094290;28;20202;-76
2022/03/08 08:48:53;;;;;;;9.45;5.43;;;;;;;-145.69;46.83;72996.59;5093486;28;20438;-76
2022/03/08 08:51:20;;;;;;;7.07;4.43;;;;;;;-145.69;44.99;72988.63;5094064;28;20202;-77
2022/03/08 08:53:46;;;;;;;13.30;4.77;;;;;;;-145.69;45.89;72990.63;5093975;28;20198;-76
2022/03/08 08:56:13;;;;;;;8.53;4.37;;;;;;;-145.69;44.02;72970.72;5093927;28;20253;-76
2022/03/08 08:58:41;;;;;;;10.57;4.83;;;;;;;-145.69;43.94;72984.66;5094175;28;20202;-76
2022/03/08 09:01:07;;;;;;;9.53;4.77;;;;;;;-145.69;44.73;72982.66;5094217;28;20202;-77
2022/03/08 09:03:34;;;;;;;10.23;4.33;;;;;;;-145.69;43.79;72974.69;5093862;28;20202;-76
2022/03/08 09:06:00;;;;;;;8.87;4.50;;;;;;;-145.69;43.63;72962.75;5093908;28;20209;-76
2022/03/08 09:08:27;;;;;;;10.23;4.50;;;;;;;-145.69;43.75;72962.75;5093664;28;20221;-76
2022/03/08 09:10:55;;;;;;;9.13;4.60;;;;;;;-145.69;44.45;72966.72;5100382;28;20201;-77
2022/03/08 09:13:21;;;;;;;10.43;4.43;;;;;;;-145.69;44.77;72952.78;5114464;28;20232;-77
2022/03/08 09:15:49;;;;;;;8.17;4.67;;;;;;;-145.69;43.31;72940.84;5113949;28;20194;-77
2022/03/08 09:18:18;;;;;;;10.17;5.20;;;;;;;-145.69;43.53;72940.84;5114011;28;20205;-77
2022/03/08 09:20:47;;;;;;;8.50;4.63;;;;;;;-145.69;44.08;72932.91;5100414;28;20227;-78
2022/03/08 09:23:16;;;;;;;11.80;5.03;;;;;;;-145.69;43.74;72922.94;5072997;28;20203;-78
2022/03/08 09:25:42;;;;;;;9.30;4.70;;;;;;;-145.69;43.67;72920.94;5073349;28;20587;-77
2022/03/08 09:28:09;;;;;;;8.70;4.70;;;;;;;-145.69;42.23;72934.88;5073071;28;20199;-77
2022/03/08 09:30:37;;;;;;;9.10;4.80;;;;;;;-145.69;43.38;72928.91;5073046;28;20599;-78
2022/03/08 09:33:08;;;;;;;7.83;4.23;;;;;;;-145.69;41.98;72907.00;5072988;28;20237;-77
2022/03/08 09:35:35;;;;;;;9.87;4.47;;;;;;;-145.69;41.21;72911.00;5073035;28;20219;-78
2022/03/08 09:38:02;;;;;;;9.53;4.40;;;;;;;-145.69;41.57;72907.00;5073204;28;20208;-77
2022/03/08 09:40:29;;;;;;;13.27;4.77;;;;;;;-145.69;42.03;72893.09;5088889;28;20200;-78
2022/03/08 09:42:55;;;;;;;7.97;4.77;;;;;;;-145.69;42.36;72893.09;5113561;28;20205;-77
2022/03/08 09:45:22;;;;;;;7.50;4.50;;;;;;;-145.69;41.67;72895.06;5113464;28;20542;-82
2022/03/08 09:47:49;;;;;;;7.80;4.57;;;;;;;-145.69;41.29;72883.13;5113316;28;20201;-78
2022/03/08 09:50:18;;;;;;;9.57;4.60;;;;;;;-145.69;41.32;72855.25;5113757;28;20262;-77
2022/03/08 09:52:45;;;;;;;9.03;4.37;;;;;;;-145.69;42.14;72843.31;5113194;28;20236;-77
2022/03/08 09:55:14;;;;;;;6.63;3.80;;;;;;;-145.69;41.01;72823.41;5100191;28;20569;-76
2022/03/08 09:57:41;;;;;;;9.30;4.70;;;;;;;-145.69;41.35;72799.53;5093185;28;20572;-76
2022/03/08 10:00:09;;;;;;;6.90;4.37;;;;;;;-145.69;39.53;72803.50;5092891;28;20205;-76
2022/03/08 10:02:45;;;;;;;9.73;3.80;;;;;;;-145.69;39.59;72815.44;5092761;28;20649;-76
2022/03/08 10:05:12;;;;;;;7.40;3.63;;;;;;;-145.69;39.85;72803.50;5093053;28;20561;-76
2022/03/08 10:07:39;;;;;;;6.27;3.53;;;;;;;-145.69;39.14;72807.47;5093015;28;20224;-76
2022/03/08 10:10:07;;;;;;;9.13;4.07;;;;;;;-145.69;38.55;72779.63;5092748;28;20200;-76
2022/03/08 10:12:33;;;;;;;8.33;4.20;;;;;;;-145.69;38.06;72769.66;5092814;28;20229;-76
2022/03/08 10:15:01;;;;;;;11.03;4.17;;;;;;;-145.69;37.69;72757.72;5092717;28;20204;-76
2022/03/08 10:17:35;;;;;;;9.63;3.73;;;;;;;-145.69;37.49;72769.66;5093075;28;20289;-76
2022/03/08 10:20:02;;;;;;;7.40;4.07;;;;;;;-145.69;37.99;72755.72;5092886;28;20614;-76
2022/03/08 10:22:30;;;;;;;8.57;3.73;;;;;;;-145.69;38.34;72751.75;5092962;28;20209;-76
2022/03/08 10:25:12;;;;;;;9.53;4.13;;;;;;;-145.69;37.64;72731.84;5102552;28;20670;-76
2022/03/08 10:27:42;;;;;;;8.63;4.10;;;;;;;-145.69;37.73;72731.84;5111524;28;20213;-77
2022/03/08 10:30:12;;;;;;;7.03;3.87;;;;;;;-145.69;38.23;72731.84;5102824;28;20209;-77
2022/03/08 10:32:39;;;;;;;7.70;4.40;;;;;;;-145.69;37.10;72737.81;5112978;28;20222;-77
2022/03/08 10:35:08;;;;;;;8.77;4.03;;;;;;;-145.69;37.42;72725.88;5113006;28;20201;-76
2022/03/08 10:37:36;;;;;;;8.57;4.80;;;;;;;-145.69;38.09;72725.88;5113055;28;20250;-76
2022/03/08 10:40:06;;;;;;;9.07;4.30;;;;;;;-145.69;37.27;72723.88;5112867;28;20204;-76
2022/03/08 10:42:37;;;;;;;8.20;4.40;;;;;;;-145.69;38.29;72739.81;5113250;28;20198;-76
2022/03/08 10:45:07;;;;;;;6.63;4.27;;;;;;;-145.69;38.66;72743.78;5112966;28;20664;-76
2022/03/08 10:47:41;;;;;;;8.73;4.77;;;;;;;-145.69;39.04;72731.84;5113007;28;20201;-76
2022/03/08 10:50:09;;;;;;;9.40;5.70;;;;;;;-145.69;39.19;72725.88;5110037;28;20431;-76
2022/03/08 10:52:38;;;;;;;7.93;5.07;;;;;;;-145.69;39.50;72721.88;5092317;28;20221;-77
2022/03/08 10:55:14;;;;;;;8.70;5.20;;;;;;;-145.69;39.68;72715.91;5095620;28;20209;-77
2022/03/08 10:57:43;;;;;;;11.53;5.77;;;;;;;-145.69;39.15;72719.91;5096009;28;20198;-78
2022/03/08 11:00:14;;;;;;;10.30;5.83;;;;;;;-145.69;39.24;72715.91;5096302;28;20201;-76
2022/03/08 11:02:49;;;;;;;13.43;5.30;;;;;;;-145.69;41.06;72696.00;5097231;28;20205;-77
2022/03/08 11:05:17;;;;;;;10.37;5.50;;;;;;;-145.69;39.91;72680.09;5096042;28;20202;-77
2022/03/08 11:07:43;;;;;;;11.43;5.50;;;;;;;-145.69;38.60;72630.31;5095970;28;20206;-77
2022/03/08 11:10:12;;;;;;;10.40;5.57;;;;;;;-145.69;39.37;72654.22;5096251;28;20209;-76